Terminal Aerodrome Forecast
Issued by NWS

Home | Current Version | Previous Version | Text Only | Print | Product List | Glossary On
Versions: 1 2 3 4 5 6 7 8 9 10 11 12 13 14 15 16 17 18 19 20 21 22 23 24
053
FTUS42 KTBW 230520
TAFPGD
TAF
KPGD 230520Z 2306/2406 10004KT P6SM SCT250
     FM230900 10004KT P6SM SCT008 SCT250
      TEMPO 2309/2312 BKN008
     FM231400 10007KT P6SM SCT015 SCT250
     FM231700 10007KT P6SM VCTS SCT030CB BKN050
     FM240100 10004KT P6SM VCSH SCT040 BKN100=

USA.gov is the U.S. government's official web portal to all federal, state and local government web resources and services.